KVTN/VTN METAR and TAF weather

Enter ICAO airport designator
Station Type Date Time Source
KVTN METAR 2021/06/22 22:52 UTC NOAA

KVTN 222252Z AUTO 03011G19KT 10SM CLR 33/07 A2977 RMK AO2 SLP060 T03280067


Station Type Date Time Source
KVTN Decoded METAR 2021/06/22 22:52 UTC NOAA

MILLER FIELD - VALENTINE, NE, NE, United States (KVTN) 42-52N 100-33W 788M
Jun 22, 2021 - 06:52 PM EDT / 2021.06.22 2252 UTC
Wind: from the NNE (030 degrees) at 13 MPH (11 KT) gusting to 22 MPH (19 KT):0
Visibility: 10 mile(s):0
Sky conditions: clear
Temperature: 91.0 F (32.8 C)
Dew Point: 44.1 F (6.7 C)
Relative Humidity: 19%
Pressure (altimeter): 29.77 in. Hg (1008 hPa)
ob: KVTN 222252Z AUTO 03011G19KT 10SM CLR 33/07 A2977 RMK AO2 SLP060 T03280067
cycle: 23

Station Type Date Time Source
KVTN TAF 2021/06/22 18:22 UTC NOAA

TAF KVTN 221720Z 2218/2318 26009KT P6SM SKC
FM222000 30009KT P6SM FEW250
FM222100 35009KT P6SM FEW250
FM230000 03009KT P6SM SKC
FM230200 06008KT P6SM SKC
FM230400 09007KT P6SM SKC

Example: see airport list